Time;durP1;ratioP1;P1;durP2;ratioP2;P2;SDS_P1;SDS_P2;PMS_P1;PMS_P2;Temp;Humidity;BMP_temperature;BMP_pressure;BME280_temperature;BME280_humidity;BME280_pressure;Samples;Min_cycle;Max_cycle;Signal;HPM_P1;HPM_P2
2021/04/12 00:02:35;;;;;;;1999.90;999.90;;;;;;;11.28;61.40;98043.84;5000974;28;20054;-66
2021/04/12 00:05:21;;;;;;;1999.90;999.90;;;;;;;11.31;61.41;98036.00;5006830;28;20085;-66
2021/04/12 00:08:05;;;;;;;1999.90;999.90;;;;;;;11.39;61.17;98043.44;5006071;28;20072;-66
2021/04/12 00:10:35;;;;;;;1999.90;999.90;;;;;;;11.29;61.49;98044.66;5002525;28;20046;-66
2021/04/12 00:13:12;;;;;;;1999.90;999.90;;;;;;;11.47;60.70;98045.31;5006356;28;20567;-66
2021/04/12 00:15:46;;;;;;;1999.90;999.90;;;;;;;11.08;61.44;98039.91;5003885;28;20421;-66
2021/04/12 00:18:22;;;;;;;1999.90;999.90;;;;;;;11.17;61.47;98047.38;5009032;28;20128;-66
2021/04/12 00:20:55;;;;;;;1999.90;999.90;;;;;;;10.90;62.40;98039.22;5001702;28;20050;-66
2021/04/12 00:23:48;;;;;;;1999.90;999.90;;;;;;;11.02;61.95;98048.78;5006439;28;20232;-66
2021/04/12 00:26:42;;;;;;;1999.90;999.90;;;;;;;11.07;62.16;98040.25;5004583;28;20057;-66
2021/04/12 00:29:16;;;;;;;1999.90;999.90;;;;;;;11.20;61.90;98041.16;5002497;28;20046;-66
2021/04/12 00:31:50;;;;;;;1999.90;999.90;;;;;;;11.25;61.59;98041.75;5006472;28;20449;-66
2021/04/12 00:34:30;;;;;;;1999.90;999.90;;;;;;;11.24;61.62;98040.13;5007288;28;20108;-66
2021/04/12 00:37:03;;;;;;;1999.90;999.90;;;;;;;11.09;62.06;98035.19;5004553;28;20078;-66
2021/04/12 00:39:39;;;;;;;1999.90;999.90;;;;;;;11.07;61.98;98038.28;5009414;28;20417;-66
2021/04/12 00:42:14;;;;;;;1999.90;999.90;;;;;;;11.05;62.26;98039.78;5006901;28;20061;-66
2021/04/12 00:45:18;;;;;;;1999.90;999.90;;;;;;;11.15;61.79;98036.63;5008466;28;20509;-66
2021/04/12 00:48:22;;;;;;;1999.90;999.90;;;;;;;10.99;61.85;98030.06;5005571;28;20050;-66
2021/04/12 00:50:54;;;;;;;1999.90;999.90;;;;;;;10.88;61.91;98027.69;5004676;28;20530;-66
2021/04/12 00:54:06;;;;;;;1999.90;999.90;;;;;;;10.77;61.78;98032.00;5019677;28;20042;-66
2021/04/12 00:56:35;;;;;;;;;;;;;;;10.66;62.41;98034.34;5004332;28;20045;-66
2021/04/12 00:59:12;;;;;;;1999.90;999.90;;;;;;;10.67;62.70;98026.84;5006568;28;19932;-66
2021/04/12 01:01:46;;;;;;;1999.90;999.90;;;;;;;10.62;63.30;98032.56;5008440;28;20045;-66
2021/04/12 01:04:31;;;;;;;1999.90;999.90;;;;;;;10.62;63.82;98032.56;5005718;28;20528;-66
2021/04/12 01:07:35;;;;;;;1999.90;999.90;;;;;;;10.55;63.62;98028.38;5012232;28;20049;-66
2021/04/12 01:10:10;;;;;;;1999.90;999.90;;;;;;;10.46;64.09;98029.56;4999150;28;20054;-66
2021/04/12 01:13:13;;;;;;;1999.90;999.90;;;;;;;10.32;64.33;98024.25;5006668;28;20107;-66
2021/04/12 01:15:52;;;;;;;1999.90;999.90;;;;;;;9.98;64.81;98026.78;5006701;28;20050;-66
2021/04/12 01:18:37;;;;;;;1999.90;999.90;;;;;;;9.60;66.13;98033.06;5005383;28;20146;-66
2021/04/12 01:21:15;;;;;;;1999.90;999.90;;;;;;;9.51;66.74;98030.31;5004112;28;20125;-66
2021/04/12 01:24:19;;;;;;;1999.90;999.90;;;;;;;9.57;66.80;98032.88;5013493;28;20547;-66
2021/04/12 01:27:10;;;;;;;1999.90;999.90;;;;;;;9.62;66.59;98038.25;5005085;28;20112;-66
2021/04/12 01:29:59;;;;;;;1999.90;999.90;;;;;;;9.87;65.93;98037.38;5006290;28;20042;-66
2021/04/12 01:32:47;;;;;;;1999.90;999.90;;;;;;;10.04;65.31;98039.28;5014093;28;20417;-66
2021/04/12 01:35:50;;;;;;;1999.90;999.90;;;;;;;9.99;65.59;98033.94;5003875;28;20432;-66
2021/04/12 01:38:51;;;;;;;1999.90;999.90;;;;;;;10.01;65.18;98037.16;5010143;28;20113;-66
2021/04/12 01:41:57;;;;;;;1999.90;999.90;;;;;;;9.23;67.40;98045.56;5023463;28;20494;-66
2021/04/12 01:44:28;;;;;;;1999.90;999.90;;;;;;;9.52;67.06;98042.94;5005889;28;20696;-66
2021/04/12 01:47:13;;;;;;;;;;;;;;;9.67;66.33;98032.53;5012795;28;20137;-66
2021/04/12 01:49:45;;;;;;;1999.90;999.90;;;;;;;9.74;66.40;98032.06;5002901;28;20444;-65
2021/04/12 01:52:30;;;;;;;1999.90;999.90;;;;;;;9.79;66.16;98029.13;5005266;28;20052;-66
2021/04/12 01:55:18;;;;;;;1999.90;999.90;;;;;;;9.65;66.74;98032.06;5007797;28;20045;-66
2021/04/12 01:58:10;;;;;;;1999.90;999.90;;;;;;;9.47;67.21;98034.03;5004068;28;20050;-66
2021/04/12 02:00:57;;;;;;;1999.90;999.90;;;;;;;9.27;67.58;98035.50;5000887;28;20050;-66
2021/04/12 02:03:35;;;;;;;1999.90;999.90;;;;;;;9.19;67.48;98033.56;5008347;28;20060;-66
2021/04/12 02:06:10;;;;;;;1999.90;999.90;;;;;;;9.24;67.63;98028.69;5004544;28;20057;-66
2021/04/12 02:08:59;;;;;;;1999.90;999.90;;;;;;;9.39;67.40;98038.41;5002861;28;20050;-66
2021/04/12 02:11:35;;;;;;;1999.90;999.90;;;;;;;9.45;67.03;98034.38;5005792;28;20193;-66
2021/04/12 02:14:32;;;;;;;1999.90;999.90;;;;;;;9.45;67.42;98037.13;4999581;28;20053;-66
2021/04/12 02:17:30;;;;;;;1999.90;999.90;;;;;;;9.39;67.09;98041.16;5005720;28;20046;-66
2021/04/12 02:20:19;;;;;;;1999.90;999.90;;;;;;;9.32;67.10;98038.13;4992534;28;20082;-66
2021/04/12 02:23:00;;;;;;;1999.90;999.90;;;;;;;9.03;68.38;98044.25;5005934;28;20421;-65
2021/04/12 02:25:51;;;;;;;1999.90;999.90;;;;;;;9.22;67.42;98047.50;5006466;28;20149;-65
2021/04/12 02:28:44;;;;;;;1999.90;999.90;;;;;;;9.24;67.40;98038.91;5003860;28;20049;-66
2021/04/12 02:31:34;;;;;;;1999.90;999.90;;;;;;;9.22;67.58;98028.19;5007191;28;20045;-66
2021/04/12 02:34:19;;;;;;;1999.90;999.90;;;;;;;9.26;67.71;98031.94;5005339;28;20461;-64
2021/04/12 02:37:12;;;;;;;1999.90;999.90;;;;;;;9.09;68.18;98018.94;5001871;28;20042;-64
2021/04/12 02:39:41;;;;;;;1999.90;999.90;;;;;;;9.07;67.90;98029.50;4998193;28;20128;-64
2021/04/12 02:42:11;;;;;;;1999.90;999.90;;;;;;;9.07;67.78;98021.22;5003642;28;20050;-64
2021/04/12 02:44:40;;;;;;;1999.90;999.90;;;;;;;8.76;68.82;98027.66;5001237;28;20065;-64
2021/04/12 02:47:33;;;;;;;1999.90;999.90;;;;;;;8.96;68.75;98033.69;5001251;28;20457;-64
2021/04/12 02:50:18;;;;;;;1999.90;999.90;;;;;;;8.97;68.09;98027.84;5001383;28;20049;-64
2021/04/12 02:52:52;;;;;;;1999.90;999.90;;;;;;;8.98;68.28;98020.41;5004296;28;20053;-64
2021/04/12 02:55:32;;;;;;;1999.90;999.90;;;;;;;8.97;68.22;98030.59;5002925;28;20077;-64
2021/04/12 02:58:04;;;;;;;1999.90;999.90;;;;;;;8.81;68.07;98027.53;5006107;28;20046;-64
2021/04/12 03:00:45;;;;;;;;;;;;;;;8.80;68.76;98023.13;5001525;28;20123;-64
2021/04/12 03:03:28;;;;;;;1999.90;999.90;;;;;;;8.87;68.44;98019.09;5005104;28;19930;-64
2021/04/12 03:06:24;;;;;;;1999.90;999.90;;;;;;;8.87;68.61;98013.56;5004218;28;20070;-64
2021/04/12 03:09:09;;;;;;;1999.90;999.90;;;;;;;8.84;68.62;98016.97;5005129;28;20050;-65
2021/04/12 03:12:29;;;;;;;1999.90;999.90;;;;;;;8.90;68.71;98013.75;5004675;28;20108;-66
2021/04/12 03:15:13;;;;;;;1999.90;999.90;;;;;;;8.88;68.78;98012.44;5022987;28;20628;-66
2021/04/12 03:17:57;;;;;;;1999.90;999.90;;;;;;;8.74;69.04;98009.84;5004856;28;20571;-66
2021/04/12 03:21:07;;;;;;;1999.90;999.90;;;;;;;8.61;69.25;98008.84;5000628;28;20053;-64
2021/04/12 03:23:55;;;;;;;1999.90;999.90;;;;;;;8.65;69.22;98015.34;5003187;28;20062;-64
2021/04/12 03:26:40;;;;;;;1999.90;999.90;;;;;;;8.28;69.98;98015.50;5004236;28;20100;-64
2021/04/12 03:29:24;;;;;;;1999.90;999.90;;;;;;;8.21;70.60;98011.59;5008462;28;20046;-65
2021/04/12 03:32:18;;;;;;;1999.90;999.90;;;;;;;8.31;70.75;98005.81;5000670;28;20111;-64
2021/04/12 03:35:13;;;;;;;1999.90;999.90;;;;;;;8.54;70.06;98009.28;5005968;28;20049;-65
2021/04/12 03:37:56;;;;;;;1999.90;999.90;;;;;;;8.60;69.91;98002.53;5006848;28;20112;-65
2021/04/12 03:40:29;;;;;;;1999.90;999.90;;;;;;;8.65;69.19;98001.56;5001647;28;20065;-64
2021/04/12 03:43:20;;;;;;;1999.90;999.90;;;;;;;8.62;69.60;98010.47;5007440;28;20061;-65
2021/04/12 03:45:49;;;;;;;1999.90;999.90;;;;;;;8.55;69.94;98005.41;5005379;28;20286;-65
2021/04/12 03:48:37;;;;;;;1999.90;999.90;;;;;;;8.64;69.88;98008.19;5005819;28;20108;-65
2021/04/12 03:51:35;;;;;;;1999.90;999.90;;;;;;;8.31;70.42;98005.81;5009567;28;20054;-65
2021/04/12 03:54:32;;;;;;;1999.90;999.90;;;;;;;8.36;71.47;98008.41;5009586;28;20050;-64
2021/04/12 03:57:13;;;;;;;1999.90;999.90;;;;;;;8.54;70.60;98014.81;5003527;28;20050;-64
2021/04/12 03:59:57;;;;;;;1999.90;999.90;;;;;;;8.52;70.35;98008.81;5006652;28;20042;-65
2021/04/12 04:02:45;;;;;;;1999.90;999.90;;;;;;;8.49;69.99;98011.41;5007382;28;20386;-65
2021/04/12 04:05:20;;;;;;;1999.90;999.90;;;;;;;8.59;69.49;98009.16;5002714;28;20053;-65
2021/04/12 04:08:24;;;;;;;1999.90;999.90;;;;;;;8.53;70.00;98006.84;5007957;28;20611;-64
2021/04/12 04:11:25;;;;;;;1999.90;999.90;;;;;;;8.39;70.86;98020.75;5001569;28;20520;-64
2021/04/12 04:14:15;;;;;;;1999.90;999.90;;;;;;;8.45;70.58;98009.25;5012528;28;20061;-65
2021/04/12 04:16:52;;;;;;;1999.90;999.90;;;;;;;8.47;70.37;98011.72;5018164;28;20312;-65
2021/04/12 04:19:36;;;;;;;1999.90;999.90;;;;;;;8.57;70.07;98018.88;5000801;28;20245;-64
2021/04/12 04:22:08;;;;;;;1999.90;999.90;;;;;;;8.56;69.60;98022.75;5005071;28;20054;-64
2021/04/12 04:24:59;;;;;;;1999.90;999.90;;;;;;;8.56;70.13;98036.53;5001019;28;20054;-65
2021/04/12 04:28:10;;;;;;;1999.90;999.90;;;;;;;8.63;70.49;98034.13;5004051;28;20050;-64
2021/04/12 04:30:55;;;;;;;1999.90;999.90;;;;;;;8.73;69.83;98039.34;5007203;28;20080;-65
2021/04/12 04:34:00;;;;;;;1999.90;999.90;;;;;;;8.68;69.46;98045.00;5002135;28;20053;-65
2021/04/12 04:36:32;;;;;;;1999.90;999.90;;;;;;;8.68;69.96;98047.78;5003628;28;20060;-65
2021/04/12 04:39:05;;;;;;;1999.90;999.90;;;;;;;8.16;71.33;98053.03;5003402;28;20057;-64
2021/04/12 04:41:50;;;;;;;1999.90;999.90;;;;;;;7.45;74.75;98059.28;5000650;28;20065;-64
2021/04/12 04:44:44;;;;;;;1999.90;999.90;;;;;;;7.75;74.19;98061.25;5008148;28;20068;-64
2021/04/12 04:47:31;;;;;;;1999.90;999.90;;;;;;;8.25;72.31;98060.22;4997107;28;20057;-65
2021/04/12 04:50:15;;;;;;;1999.90;999.90;;;;;;;8.57;71.70;98069.28;5001662;28;20473;-64
2021/04/12 04:53:19;;;;;;;1999.90;999.90;;;;;;;8.78;70.53;98074.22;5007779;28;20064;-65
2021/04/12 04:55:48;;;;;;;1999.90;999.90;;;;;;;8.91;70.14;98072.47;5002103;28;20125;-65
2021/04/12 04:58:22;;;;;;;1999.90;999.90;;;;;;;8.90;70.07;98079.09;5007768;28;20104;-65
2021/04/12 05:01:14;;;;;;;1999.90;999.90;;;;;;;8.83;70.46;98079.59;5005732;28;20045;-64
2021/04/12 05:04:11;;;;;;;1999.90;999.90;;;;;;;8.77;71.75;98087.19;5001577;28;20045;-64
2021/04/12 05:07:14;;;;;;;1999.90;999.90;;;;;;;9.20;70.73;98091.19;5001097;28;20053;-65
2021/04/12 05:09:58;;;;;;;1999.90;999.90;;;;;;;9.46;70.84;98088.41;4995050;28;20112;-65
2021/04/12 05:12:35;;;;;;;1999.90;999.90;;;;;;;9.77;69.05;98087.44;5002903;28;20038;-65
2021/04/12 05:15:38;;;;;;;1999.90;999.90;;;;;;;10.30;67.93;98079.84;5010535;28;20064;-64
2021/04/12 05:18:28;;;;;;;1999.90;999.90;;;;;;;10.58;68.14;98084.94;5000393;28;20054;-65
2021/04/12 05:21:36;;;;;;;1999.90;999.90;;;;;;;11.47;65.57;98084.06;5002446;28;20088;-65
2021/04/12 05:24:07;;;;;;;1999.90;999.90;;;;;;;11.35;64.08;98087.59;5014624;28;20057;-64
2021/04/12 05:26:50;;;;;;;1999.90;999.90;;;;;;;11.71;63.48;98088.13;4999998;28;20112;-64
2021/04/12 05:29:53;;;;;;;1999.90;999.90;;;;;;;12.16;61.99;98084.59;5010944;28;20321;-65
2021/04/12 05:32:47;;;;;;;1999.90;999.90;;;;;;;11.67;64.01;98089.94;5004116;28;20126;-65
2021/04/12 05:35:21;;;;;;;1999.90;999.90;;;;;;;11.63;65.02;98095.34;5001139;28;20054;-65
2021/04/12 05:38:12;;;;;;;1999.90;999.90;;;;;;;12.23;63.11;98100.69;5004603;28;20488;-65
2021/04/12 05:41:12;;;;;;;1999.90;999.90;;;;;;;12.53;62.26;98106.84;5003392;28;20053;-65
2021/04/12 05:43:55;;;;;;;1999.90;999.90;;;;;;;12.76;61.75;98104.47;5006543;28;20057;-65
2021/04/12 05:46:30;;;;;;;1999.90;999.90;;;;;;;13.01;61.23;98102.50;5007461;28;20045;-65
2021/04/12 05:49:15;;;;;;;1999.90;999.90;;;;;;;13.04;60.93;98101.78;5000198;28;20046;-66
2021/04/12 05:52:08;;;;;;;1999.90;999.90;;;;;;;13.22;59.54;98112.66;5004078;28;20041;-66
2021/04/12 05:55:04;;;;;;;1999.90;999.90;;;;;;;13.41;58.18;98112.06;5003785;28;20402;-66
2021/04/12 05:57:30;;;;;;;1999.90;999.90;;;;;;;13.33;59.16;98108.22;4999522;28;20051;-66
2021/04/12 06:00:29;;;;;;;1999.90;999.90;;;;;;;13.61;57.37;98115.03;5001593;28;20409;-66
2021/04/12 06:03:34;;;;;;;1999.90;999.90;;;;;;;13.52;56.86;98112.41;5003576;28;20254;-65
2021/04/12 06:06:25;;;;;;;1999.90;999.90;;;;;;;13.52;57.18;98123.50;4998370;28;20057;-66
2021/04/12 06:09:21;;;;;;;1999.90;999.90;;;;;;;13.41;56.99;98122.38;4996291;28;20053;-65
2021/04/12 06:12:06;;;;;;;1999.90;999.90;;;;;;;13.27;57.27;98122.72;5003525;28;20610;-65
2021/04/12 06:14:47;;;;;;;1999.90;999.90;;;;;;;13.35;57.81;98130.94;5001220;28;20531;-65
2021/04/12 06:17:35;;;;;;;1999.90;999.90;;;;;;;13.09;57.12;98128.50;4997181;28;20504;-65
2021/04/12 06:20:04;;;;;;;1999.90;999.90;;;;;;;13.03;56.62;98143.78;5004000;28;20062;-65
2021/04/12 06:22:49;;;;;;;1999.90;999.90;;;;;;;12.67;57.06;98151.72;5003361;28;20501;-65
2021/04/12 06:25:41;;;;;;;1999.90;999.90;;;;;;;12.60;57.45;98153.44;5001584;28;20409;-65
2021/04/12 06:28:21;;;;;;;1999.90;999.90;;;;;;;12.40;57.99;98146.81;5000673;28;20058;-65
2021/04/12 06:31:22;;;;;;;1999.90;999.90;;;;;;;13.41;57.52;98147.34;5002697;28;20046;-65
2021/04/12 06:34:25;;;;;;;1999.90;999.90;;;;;;;13.32;56.54;98151.06;5002327;28;20149;-65
2021/04/12 06:37:29;;;;;;;1999.90;999.90;;;;;;;13.32;57.32;98153.84;5000307;28;20131;-65
2021/04/12 06:40:33;;;;;;;1999.90;999.90;;;;;;;13.21;56.73;98156.25;4993755;28;20050;-66
2021/04/12 06:43:37;;;;;;;1999.90;999.90;;;;;;;13.37;57.17;98159.16;5010195;28;20521;-65
2021/04/12 06:46:52;;;;;;;1999.90;999.90;;;;;;;14.11;55.35;98160.13;5002255;28;20053;-66
2021/04/12 06:49:40;;;;;;;1999.90;999.90;;;;;;;13.89;55.61;98159.53;4994879;28;20058;-65
2021/04/12 06:52:44;;;;;;;1999.90;999.90;;;;;;;14.20;55.90;98163.56;5003498;28;20501;-65
2021/04/12 06:55:19;;;;;;;1999.90;999.90;;;;;;;14.69;53.86;98168.88;5001352;28;20054;-66
2021/04/12 06:58:14;;;;;;;1999.90;999.90;;;;;;;14.44;55.00;98165.44;5002533;28;20054;-66
2021/04/12 07:01:01;;;;;;;1999.90;999.90;;;;;;;14.65;53.88;98162.44;5003371;28;20050;-66
2021/04/12 07:03:52;;;;;;;1999.90;999.90;;;;;;;13.74;55.31;98158.31;5001361;28;20497;-65
2021/04/12 07:06:43;;;;;;;1999.90;999.90;;;;;;;14.61;54.71;98169.88;5000710;28;20325;-65
2021/04/12 07:09:43;;;;;;;1999.90;999.90;;;;;;;14.33;54.84;98175.44;5003594;28;20054;-65
2021/04/12 07:12:22;;;;;;;1999.90;999.90;;;;;;;14.77;53.48;98165.16;5001693;28;20715;-65
2021/04/12 07:15:25;;;;;;;1999.90;999.90;;;;;;;14.52;55.21;98169.22;5005283;28;20053;-65
2021/04/12 07:18:13;;;;;;;1999.90;999.90;;;;;;;14.70;53.77;98167.72;4996946;28;20042;-65
2021/04/12 07:20:58;;;;;;;1999.90;999.90;;;;;;;14.06;55.11;98169.53;5031140;28;20057;-65
2021/04/12 07:23:24;;;;;;;1999.90;999.90;;;;;;;13.95;55.95;98162.84;5003280;28;20049;-65
2021/04/12 07:26:21;;;;;;;1999.90;999.90;;;;;;;14.97;54.58;98168.81;5005810;28;20228;-66
2021/04/12 07:29:35;;;;;;;1999.90;999.90;;;;;;;14.73;54.04;98169.81;5004742;28;20060;-65
2021/04/12 07:32:41;;;;;;;1999.90;999.90;;;;;;;14.30;55.41;98178.94;5005537;28;20093;-65
2021/04/12 07:35:10;;;;;;;1999.90;999.90;;;;;;;14.72;54.47;98173.78;5007156;28;20144;-65
2021/04/12 07:37:36;;;;;;;1999.90;999.90;;;;;;;14.32;55.26;98182.16;5005852;28;20099;-65
2021/04/12 07:40:37;;;;;;;1999.90;999.90;;;;;;;14.57;59.69;98192.03;5004563;28;20050;-65
2021/04/12 07:43:21;;;;;;;1999.90;999.90;;;;;;;14.42;62.60;98190.84;5002507;28;20464;-65
2021/04/12 07:46:33;;;;;;;1999.90;999.90;;;;;;;14.26;63.63;98196.34;4997914;28;20562;-65
2021/04/12 07:49:14;;;;;;;1999.90;999.90;;;;;;;14.03;64.39;98204.41;5012525;28;20050;-65
2021/04/12 07:52:09;;;;;;;1999.90;999.90;;;;;;;14.44;64.00;98212.72;5007993;28;20050;-65
2021/04/12 07:54:44;;;;;;;1999.90;999.90;;;;;;;14.55;63.83;98208.25;5001160;28;20761;-65
2021/04/12 07:57:29;;;;;;;1999.90;999.90;;;;;;;14.65;62.63;98214.50;5006508;28;20909;-63
2021/04/12 08:00:31;;;;;;;1999.90;999.90;;;;;;;14.42;62.69;98224.22;5001685;28;20449;-63
2021/04/12 08:03:16;;;;;;;;;;;;;;;14.96;62.45;98216.50;5017232;28;20050;-64
2021/04/12 08:06:05;;;;;;;1999.90;999.90;;;;;;;15.54;60.66;98215.13;5003920;28;19929;-64
2021/04/12 08:08:52;;;;;;;1999.90;999.90;;;;;;;14.69;62.25;98224.53;5000385;28;20054;-64
2021/04/12 08:12:00;;;;;;;1999.90;999.90;;;;;;;14.91;62.97;98230.69;5003403;28;20056;-64
2021/04/12 08:15:04;;;;;;;1999.90;999.90;;;;;;;15.39;60.75;98230.72;5002507;28;20054;-64
2021/04/12 08:18:10;;;;;;;1999.90;999.90;;;;;;;14.91;63.61;98225.94;4999276;28;20096;-64
2021/04/12 08:20:36;;;;;;;1999.90;999.90;;;;;;;15.31;61.67;98224.16;5006772;28;20549;-64
2021/04/12 08:23:24;;;;;;;1999.90;999.90;;;;;;;15.30;61.13;98228.94;5003947;28;20134;-64
2021/04/12 08:26:08;;;;;;;1999.90;999.90;;;;;;;15.70;60.12;98227.06;5012963;28;20068;-64
2021/04/12 08:28:46;;;;;;;1999.90;999.90;;;;;;;15.86;61.28;98224.28;5001795;28;20054;-64
2021/04/12 08:31:31;;;;;;;1999.90;999.90;;;;;;;16.57;58.95;98226.97;5001090;28;20057;-64
2021/04/12 08:34:23;;;;;;;1999.90;999.90;;;;;;;15.81;60.73;98225.38;5004449;28;20049;-64
2021/04/12 08:37:11;;;;;;;1999.90;999.90;;;;;;;15.67;60.14;98230.56;5001715;28;20646;-64
2021/04/12 08:40:03;;;;;;;1999.90;999.90;;;;;;;16.36;59.50;98225.34;5002525;28;20072;-64
2021/04/12 08:43:07;;;;;;;1999.90;999.90;;;;;;;16.13;58.89;98230.03;5002336;28;20053;-64
2021/04/12 08:45:55;;;;;;;1999.90;999.90;;;;;;;16.31;58.77;98230.41;5000058;28;20497;-64
2021/04/12 08:48:40;;;;;;;1999.90;999.90;;;;;;;16.03;60.00;98228.63;5000952;28;20050;-64
2021/04/12 08:51:41;;;;;;;1999.90;999.90;;;;;;;14.86;62.28;98242.13;5008010;28;20153;-64
2021/04/12 08:54:27;;;;;;;1999.90;999.90;;;;;;;15.91;62.50;98242.69;5001107;28;20118;-64
2021/04/12 08:57:11;;;;;;;1999.90;999.90;;;;;;;16.57;57.01;98231.72;5006829;28;20057;-65
2021/04/12 08:59:49;;;;;;;1999.90;999.90;;;;;;;15.53;59.90;98233.84;5003919;28;20100;-64
2021/04/12 09:02:51;;;;;;;1999.90;999.90;;;;;;;15.74;59.42;98243.88;5002093;28;20084;-64
2021/04/12 09:05:23;;;;;;;1999.90;999.90;;;;;;;16.01;60.48;98234.56;5002661;28;20547;-64
2021/04/12 09:08:31;;;;;;;1999.90;999.90;;;;;;;15.90;57.84;98247.47;5002401;28;20080;-64
2021/04/12 09:11:16;;;;;;;1999.90;999.90;;;;;;;16.18;57.50;98238.09;5002076;28;20096;-64
2021/04/12 09:14:28;;;;;;;1999.90;999.90;;;;;;;16.33;58.13;98230.84;5006298;28;20061;-64
2021/04/12 09:17:05;;;;;;;1999.90;999.90;;;;;;;17.13;56.35;98247.94;5003095;28;20127;-65
2021/04/12 09:20:09;;;;;;;1999.90;999.90;;;;;;;16.70;56.53;98235.97;5002487;28;20141;-65
2021/04/12 09:23:15;;;;;;;1999.90;999.90;;;;;;;17.11;57.12;98236.34;5001484;28;20046;-66
2021/04/12 09:25:53;;;;;;;1999.90;999.90;;;;;;;16.40;57.73;98242.16;5003418;28;20054;-65
2021/04/12 09:28:31;;;;;;;1999.90;999.90;;;;;;;16.00;61.08;98246.09;5005607;28;20046;-65
2021/04/12 09:31:51;;;;;;;1999.90;999.90;;;;;;;16.52;58.11;98249.56;5000794;28;20054;-65
2021/04/12 09:34:59;;;;;;;1999.90;999.90;;;;;;;16.71;56.55;98251.53;4999264;28;20054;-64
2021/04/12 09:37:46;;;;;;;1999.90;999.90;;;;;;;16.12;57.04;98248.75;5005978;28;20060;-64
2021/04/12 09:40:36;;;;;;;1999.90;999.90;;;;;;;17.23;55.10;98241.75;5007943;28;20054;-65
2021/04/12 09:43:31;;;;;;;1999.90;999.90;;;;;;;16.34;55.95;98238.84;4998866;28;20054;-64
2021/04/12 09:46:36;;;;;;;1999.90;999.90;;;;;;;16.50;56.74;98230.41;5002579;28;20732;-65
2021/04/12 09:49:50;;;;;;;1999.90;999.90;;;;;;;16.80;55.71;98224.19;5019980;28;20057;-65
2021/04/12 09:52:37;;;;;;;1999.90;999.90;;;;;;;17.14;55.83;98234.81;5003868;28;20054;-64
2021/04/12 09:55:13;;;;;;;1999.90;999.90;;;;;;;17.88;54.15;98234.41;5000357;28;20058;-64
2021/04/12 09:57:58;;;;;;;1999.90;999.90;;;;;;;16.11;56.86;98243.56;5000583;28;20057;-64
2021/04/12 10:00:24;;;;;;;1999.90;999.90;;;;;;;15.97;58.29;98242.06;5003272;28;20111;-64
2021/04/12 10:03:27;;;;;;;1999.90;999.90;;;;;;;16.77;58.04;98244.47;5001381;28;20441;-65
2021/04/12 10:06:25;;;;;;;1999.90;999.90;;;;;;;17.36;57.25;98236.00;5004328;28;20579;-65
2021/04/12 10:09:12;;;;;;;1999.90;999.90;;;;;;;16.31;59.64;98233.19;5003357;28;20105;-65
2021/04/12 10:12:16;;;;;;;1999.90;999.90;;;;;;;17.10;56.59;98240.31;5010070;28;20049;-65
2021/04/12 10:14:54;;;;;;;1999.90;999.90;;;;;;;15.28;61.42;98244.38;5005746;28;20115;-65
2021/04/12 10:17:29;;;;;;;1999.90;999.90;;;;;;;15.62;62.50;98244.81;5004423;28;20050;-65
2021/04/12 10:20:02;;;;;;;1999.90;999.90;;;;;;;16.96;59.60;98254.84;5001900;28;20058;-65
2021/04/12 10:22:43;;;;;;;1999.90;999.90;;;;;;;17.09;59.23;98249.91;5001673;28;20456;-65
2021/04/12 10:25:17;;;;;;;1999.90;999.90;;;;;;;17.15;57.35;98256.78;5003048;28;20119;-66
2021/04/12 10:27:49;;;;;;;1999.90;999.90;;;;;;;17.19;57.04;98257.63;5001197;28;20050;-65
2021/04/12 10:30:27;;;;;;;1999.90;999.90;;;;;;;17.12;56.88;98260.31;5000894;28;20830;-65
2021/04/12 10:33:13;;;;;;;1999.90;999.90;;;;;;;16.15;58.00;98263.94;5001574;28;20058;-65
2021/04/12 10:35:57;;;;;;;1999.90;999.90;;;;;;;16.28;58.08;98257.06;5000173;28;20141;-65
2021/04/12 10:38:29;;;;;;;1999.90;999.90;;;;;;;16.98;57.63;98260.06;5002541;28;20120;-65
2021/04/12 10:41:04;;;;;;;1999.90;999.90;;;;;;;16.48;61.06;98266.25;4997848;28;20053;-65
2021/04/12 10:43:57;;;;;;;1999.90;999.90;;;;;;;16.32;58.51;98262.72;5002104;28;20056;-65
2021/04/12 10:46:46;;;;;;;1999.90;999.90;;;;;;;16.50;60.67;98272.25;5007897;28;20061;-65
2021/04/12 10:49:29;;;;;;;1999.90;999.90;;;;;;;16.94;57.47;98270.34;4999934;28;20053;-65
2021/04/12 10:52:28;;;;;;;1999.90;999.90;;;;;;;16.37;59.45;98280.00;4997209;28;20042;-65
2021/04/12 10:55:14;;;;;;;1999.90;999.90;;;;;;;15.73;60.22;98270.13;5008235;28;20052;-65
2021/04/12 10:58:11;;;;;;;1999.90;999.90;;;;;;;16.34;60.33;98277.09;4987033;28;20046;-65
2021/04/12 11:00:49;;;;;;;1999.90;999.90;;;;;;;16.11;58.41;98274.22;5003990;28;20046;-64
2021/04/12 11:03:25;;;;;;;1999.90;999.90;;;;;;;16.93;58.43;98269.56;5000664;28;20046;-65
2021/04/12 11:06:10;;;;;;;1999.90;999.90;;;;;;;17.49;55.37;98284.09;5010200;28;20056;-65
2021/04/12 11:08:54;;;;;;;1999.90;999.90;;;;;;;18.18;55.96;98281.19;5002108;28;20062;-65
2021/04/12 11:11:23;;;;;;;1999.90;999.90;;;;;;;17.32;56.10;98279.81;5000277;28;20678;-64
2021/04/12 11:14:10;;;;;;;1999.90;999.90;;;;;;;17.43;58.40;98283.59;5002741;28;20149;-65
2021/04/12 11:17:05;;;;;;;1999.90;999.90;;;;;;;17.39;56.86;98291.13;5000993;28;20054;-65
2021/04/12 11:19:39;;;;;;;1999.90;999.90;;;;;;;17.18;59.07;98285.94;5010123;28;20060;-65
2021/04/12 11:22:24;;;;;;;1999.90;999.90;;;;;;;17.06;58.87;98290.53;4997163;28;20081;-63
2021/04/12 11:25:15;;;;;;;1999.90;999.90;;;;;;;16.35;59.39;98279.53;5004669;28;20050;-64
2021/04/12 11:28:19;;;;;;;1999.90;999.90;;;;;;;16.66;59.42;98294.53;5006029;28;20560;-64
2021/04/12 11:30:52;;;;;;;1999.90;999.90;;;;;;;15.81;60.55;98309.00;5003976;28;20500;-63
2021/04/12 11:33:24;;;;;;;1999.90;999.90;;;;;;;14.60;64.19;98310.13;5000761;28;20053;-64
2021/04/12 11:36:12;;;;;;;1999.90;999.90;;;;;;;14.09;66.48;98307.84;5004092;28;20054;-64
2021/04/12 11:38:41;;;;;;;1999.90;999.90;;;;;;;14.35;66.48;98317.75;4997652;28;20053;-64
2021/04/12 11:41:13;;;;;;;1999.90;999.90;;;;;;;14.23;66.97;98321.38;5000745;28;20552;-64
2021/04/12 11:43:45;;;;;;;1999.90;999.90;;;;;;;14.11;67.80;98319.41;4997250;28;20046;-63
2021/04/12 11:46:24;;;;;;;1999.90;999.90;;;;;;;14.58;67.82;98321.63;4999658;28;20045;-64
2021/04/12 11:48:58;;;;;;;1999.90;999.90;;;;;;;14.66;66.09;98314.31;5000875;28;20050;-63
2021/04/12 11:51:36;;;;;;;1999.90;999.90;;;;;;;14.79;67.25;98323.44;5001656;28;20049;-64
2021/04/12 11:54:08;;;;;;;1999.90;999.90;;;;;;;15.30;65.51;98331.16;5000664;28;20054;-64
2021/04/12 11:56:46;;;;;;;1999.90;999.90;;;;;;;14.62;65.97;98335.69;5000759;28;20054;-64
2021/04/12 11:59:24;;;;;;;1999.90;999.90;;;;;;;13.74;68.88;98339.72;5002625;28;20453;-64
2021/04/12 12:02:01;;;;;;;1999.90;999.90;;;;;;;13.21;71.04;98344.25;4997169;28;20046;-64
2021/04/12 12:04:46;;;;;;;1999.90;999.90;;;;;;;13.29;72.31;98351.66;5001593;28;20071;-64
2021/04/12 12:07:18;;;;;;;1999.90;999.90;;;;;;;12.36;74.38;98345.53;5001129;28;20049;-64
2021/04/12 12:09:48;;;;;;;1999.90;999.90;;;;;;;12.11;75.49;98340.63;4998014;28;20054;-64
2021/04/12 12:12:49;;;;;;;1999.90;999.90;;;;;;;11.77;77.59;98347.94;5005755;28;20517;-64
2021/04/12 12:15:31;;;;;;;1999.90;999.90;;;;;;;12.05;77.19;98355.81;4994148;28;20088;-64
2021/04/12 12:18:04;;;;;;;1999.90;999.90;;;;;;;12.05;77.04;98349.47;5005709;28;20496;-64
2021/04/12 12:20:47;;;;;;;1999.90;999.90;;;;;;;11.70;77.73;98363.47;5006578;28;20052;-64
2021/04/12 12:23:23;;;;;;;1999.90;999.90;;;;;;;11.10;81.11;98364.19;5002818;28;20046;-64
2021/04/12 12:25:52;;;;;;;1999.90;999.90;;;;;;;10.78;81.69;98368.28;4992839;28;20050;-64